createdAt,value
2019-01-31T00:01:06.803Z,12.37
2019-01-31T00:03:58.543Z,12.43
2019-01-31T00:06:52.971Z,12.93
2019-01-31T00:10:10.423Z,12.13
2019-01-31T00:13:22.582Z,11.60
2019-01-31T00:16:19.843Z,11.70
2019-01-31T00:18:58.906Z,11.87
2019-01-31T00:21:47.222Z,11.03
2019-01-31T00:24:27.939Z,12.10
2019-01-31T00:27:48.352Z,11.90
2019-01-31T00:30:58.626Z,11.65
2019-01-31T00:33:42.910Z,11.85
2019-01-31T00:36:36.512Z,11.90
2019-01-31T00:39:49.107Z,12.03
2019-01-31T00:42:27.447Z,12.07
2019-01-31T00:45:18.227Z,11.03
2019-01-31T00:48:19.154Z,11.73
2019-01-31T00:51:19.326Z,11.13
2019-01-31T00:54:08.007Z,11.80
2019-01-31T00:56:59.882Z,12.63
2019-01-31T00:59:56.064Z,11.17
2019-01-31T01:02:51.643Z,11.63
2019-01-31T01:06:27.003Z,11.50
2019-01-31T01:09:29.961Z,11.63
2019-01-31T01:12:36.415Z,11.73
2019-01-31T01:15:28.930Z,11.18
2019-01-31T01:18:09.859Z,11.65
2019-01-31T01:20:58.067Z,11.17
2019-01-31T01:24:01.896Z,11.63
2019-01-31T01:27:10.535Z,12.07
2019-01-31T01:30:19.845Z,11.20
2019-01-31T01:33:03.156Z,11.63
2019-01-31T01:35:54.890Z,10.97
2019-01-31T01:38:59.719Z,11.03
2019-01-31T01:41:44.175Z,11.67
2019-01-31T01:44:39.018Z,10.97
2019-01-31T01:47:49.824Z,11.20
2019-01-31T01:50:35.856Z,11.30
2019-01-31T01:53:16.842Z,11.47
2019-01-31T01:56:20.716Z,12.70
2019-01-31T01:59:06.285Z,11.93
2019-01-31T02:01:52.289Z,10.37
2019-01-31T02:04:55.177Z,11.53
2019-01-31T02:07:44.438Z,11.87
2019-01-31T02:10:48.450Z,11.33
2019-01-31T02:13:33.006Z,12.13
2019-01-31T02:16:56.076Z,11.73
2019-01-31T02:19:53.729Z,10.72
2019-01-31T02:23:01.846Z,11.50
2019-01-31T02:26:09.352Z,11.83
2019-01-31T02:28:58.412Z,10.80
2019-01-31T02:31:52.690Z,11.45
2019-01-31T02:34:43.374Z,11.17
2019-01-31T02:38:12.753Z,10.87
2019-01-31T02:40:58.888Z,10.70
2019-01-31T02:44:04.909Z,11.03
2019-01-31T02:46:47.596Z,11.68
2019-01-31T02:49:33.892Z,12.10
2019-01-31T02:53:06.194Z,11.40
2019-01-31T02:55:51.435Z,10.90
2019-01-31T02:58:45.649Z,10.87
2019-01-31T03:01:59.051Z,10.27
2019-01-31T03:04:55.853Z,10.65
2019-01-31T03:08:00.490Z,11.23
2019-01-31T03:10:39.475Z,10.47
2019-01-31T03:13:44.339Z,11.10
2019-01-31T03:16:30.131Z,10.43
2019-01-31T03:19:16.234Z,9.70
2019-01-31T03:22:19.922Z,11.18
2019-01-31T03:25:28.769Z,10.90
2019-01-31T03:28:25.390Z,9.83
2019-01-31T03:31:17.545Z,10.10
2019-01-31T03:34:07.215Z,10.27
2019-01-31T03:37:02.824Z,10.90
2019-01-31T03:40:28.686Z,10.70
2019-01-31T03:43:39.219Z,10.53
2019-01-31T03:46:36.036Z,10.13
2019-01-31T03:49:44.790Z,10.57
2019-01-31T03:52:46.237Z,11.23
2019-01-31T03:55:23.183Z,10.90
2019-01-31T03:58:23.983Z,9.90
2019-01-31T04:01:33.236Z,10.08
2019-01-31T04:04:11.504Z,10.27
2019-01-31T04:06:41.188Z,11.03
2019-01-31T04:09:11.688Z,10.10
2019-01-31T04:11:41.447Z,10.57
2019-01-31T04:14:11.303Z,9.90
2019-01-31T04:16:41.375Z,9.87
2019-01-31T04:19:11.047Z,10.67
2019-01-31T04:21:41.000Z,10.43
2019-01-31T04:24:11.021Z,10.30
2019-01-31T04:26:40.702Z,11.35
2019-01-31T04:29:10.433Z,10.88
2019-01-31T04:31:40.122Z,11.00
2019-01-31T04:34:10.046Z,10.23
2019-01-31T04:36:39.726Z,9.80
2019-01-31T04:39:10.171Z,10.87
2019-01-31T04:41:39.885Z,11.18
2019-01-31T04:44:09.638Z,11.43
2019-01-31T04:46:39.336Z,12.03
2019-01-31T04:49:09.008Z,11.33
2019-01-31T04:51:38.685Z,11.00
2019-01-31T04:54:08.347Z,11.50
2019-01-31T04:56:38.052Z,12.00
2019-01-31T04:59:07.864Z,11.40
2019-01-31T05:01:37.794Z,11.67
2019-01-31T05:04:07.553Z,11.90
2019-01-31T05:06:37.242Z,11.20
2019-01-31T05:09:07.979Z,10.35
2019-01-31T05:11:37.731Z,12.90
2019-01-31T05:14:07.409Z,12.90
2019-01-31T05:16:37.095Z,12.37
2019-01-31T05:19:06.767Z,12.50
2019-01-31T05:21:36.467Z,12.77
2019-01-31T05:24:06.317Z,13.72
2019-01-31T05:26:36.272Z,13.47
2019-01-31T05:29:05.941Z,13.27
2019-01-31T05:31:35.930Z,13.23
2019-01-31T05:34:06.024Z,13.40
2019-01-31T05:36:35.777Z,12.03
2019-01-31T05:39:08.364Z,13.33
2019-01-31T05:41:38.037Z,12.47
2019-01-31T05:44:07.748Z,13.30
2019-01-31T05:46:37.568Z,13.87
2019-01-31T05:49:07.333Z,13.30
2019-01-31T05:51:39.219Z,13.93
2019-01-31T05:54:08.740Z,12.87
2019-01-31T05:56:38.403Z,13.68
2019-01-31T05:59:08.087Z,13.60
2019-01-31T06:01:37.764Z,14.60
2019-01-31T06:04:07.457Z,13.80
2019-01-31T06:06:37.133Z,13.95
2019-01-31T06:09:08.758Z,13.70
2019-01-31T06:11:38.441Z,14.47
2019-01-31T06:14:08.315Z,14.13
2019-01-31T06:16:37.982Z,13.87
2019-01-31T06:19:07.751Z,14.00
2019-01-31T06:21:37.586Z,13.00
2019-01-31T06:24:07.671Z,13.28
2019-01-31T06:26:37.420Z,13.37
2019-01-31T06:29:07.120Z,12.50
2019-01-31T06:31:36.794Z,13.97
2019-01-31T06:34:06.490Z,13.20
2019-01-31T06:36:36.436Z,13.98
2019-01-31T06:39:09.000Z,14.33
2019-01-31T06:41:39.008Z,12.97
2019-01-31T06:44:08.697Z,14.03
2019-01-31T06:46:38.373Z,13.33
2019-01-31T06:49:08.177Z,13.37
2019-01-31T06:51:37.876Z,13.13
2019-01-31T06:54:07.891Z,13.22
2019-01-31T06:56:37.580Z,12.90
2019-01-31T06:59:07.335Z,12.77
2019-01-31T07:01:37.012Z,13.88
2019-01-31T07:04:06.849Z,13.23
2019-01-31T07:06:37.029Z,13.50
2019-01-31T07:09:09.861Z,12.67
2019-01-31T07:11:39.607Z,13.25
2019-01-31T07:14:09.305Z,13.27
2019-01-31T07:16:39.234Z,14.13
2019-01-31T07:19:08.938Z,13.43
2019-01-31T07:21:38.609Z,13.03
2019-01-31T07:24:08.382Z,14.87
2019-01-31T07:26:38.203Z,12.98
2019-01-31T07:29:07.835Z,13.73
2019-01-31T07:31:38.012Z,13.85
2019-01-31T07:34:07.773Z,12.88
2019-01-31T07:36:37.447Z,12.85
2019-01-31T07:39:09.288Z,13.07
2019-01-31T07:41:41.421Z,13.98
2019-01-31T07:44:10.693Z,13.00
2019-01-31T07:46:40.445Z,13.40
2019-01-31T07:49:10.395Z,12.70
2019-01-31T07:51:40.066Z,11.83
2019-01-31T07:54:10.076Z,12.58
2019-01-31T07:56:39.761Z,13.23
2019-01-31T07:59:09.446Z,12.77
2019-01-31T08:01:40.925Z,12.13
2019-01-31T08:04:11.061Z,12.83
2019-01-31T08:06:40.747Z,12.82
2019-01-31T08:09:10.772Z,12.18
2019-01-31T08:11:40.461Z,12.50
2019-01-31T08:14:10.273Z,12.80
2019-01-31T08:16:39.941Z,12.00
2019-01-31T08:19:09.667Z,11.50
2019-01-31T08:21:41.114Z,11.93
2019-01-31T08:24:10.932Z,12.20
2019-01-31T08:26:40.605Z,11.83
2019-01-31T08:29:10.362Z,12.05
2019-01-31T08:31:40.293Z,11.23
2019-01-31T08:34:11.047Z,11.73
2019-01-31T08:36:40.735Z,10.77
2019-01-31T08:39:11.109Z,11.37
2019-01-31T08:41:40.873Z,10.07
2019-01-31T08:44:10.564Z,11.30
2019-01-31T08:46:40.242Z,11.13
2019-01-31T08:49:09.998Z,9.93
2019-01-31T08:51:39.740Z,11.28
2019-01-31T08:54:09.535Z,10.10
2019-01-31T08:56:39.215Z,10.70
2019-01-31T08:59:08.897Z,11.00
2019-01-31T09:01:38.694Z,10.93
2019-01-31T09:04:08.368Z,10.87
2019-01-31T09:06:38.380Z,10.28
2019-01-31T09:09:11.774Z,10.33
2019-01-31T09:11:41.624Z,10.27
2019-01-31T09:14:11.398Z,10.40
2019-01-31T09:16:42.743Z,10.93
2019-01-31T09:19:12.432Z,10.37
2019-01-31T09:21:58.947Z,10.58
2019-01-31T09:24:48.721Z,11.23
2019-01-31T09:27:40.577Z,11.70
2019-01-31T09:30:29.822Z,12.55
2019-01-31T09:33:22.969Z,13.03
2019-01-31T09:36:17.387Z,12.33
2019-01-31T09:39:12.567Z,12.57
2019-01-31T09:42:10.884Z,12.83
2019-01-31T09:44:58.349Z,13.10
2019-01-31T09:47:49.725Z,11.67
2019-01-31T09:50:49.296Z,10.95
2019-01-31T09:53:45.129Z,11.43
2019-01-31T09:57:07.483Z,11.90
2019-01-31T09:59:53.714Z,10.03
2019-01-31T10:02:41.282Z,10.33
2019-01-31T10:05:40.511Z,10.87
2019-01-31T10:08:36.078Z,9.53
2019-01-31T10:11:45.920Z,10.10
2019-01-31T10:14:39.314Z,9.43
2019-01-31T10:17:45.988Z,9.60
2019-01-31T10:20:51.484Z,8.55
2019-01-31T10:24:29.928Z,10.03
2019-01-31T10:27:06.571Z,8.97
2019-01-31T10:29:53.900Z,9.10
2019-01-31T10:33:03.879Z,8.98
2019-01-31T10:36:20.077Z,9.18
2019-01-31T10:39:16.025Z,8.87
2019-01-31T10:42:07.629Z,8.20
2019-01-31T10:45:09.841Z,8.27
2019-01-31T10:48:01.451Z,7.92
2019-01-31T10:51:26.932Z,8.20
2019-01-31T10:54:38.079Z,8.60
2019-01-31T10:57:22.574Z,8.15
2019-01-31T11:00:39.744Z,9.03
2019-01-31T11:03:45.533Z,8.07
2019-01-31T11:06:35.025Z,9.10
2019-01-31T11:09:17.932Z,9.05
2019-01-31T11:12:13.033Z,9.45
2019-01-31T11:15:29.855Z,9.93
2019-01-31T11:18:14.973Z,8.65
2019-01-31T11:20:56.305Z,8.37
2019-01-31T11:23:48.635Z,9.47
2019-01-31T11:26:49.963Z,9.03
2019-01-31T11:29:39.359Z,9.70
2019-01-31T11:32:31.251Z,9.50
2019-01-31T11:36:00.533Z,9.83
2019-01-31T11:38:56.334Z,8.57
2019-01-31T11:42:07.559Z,8.23
2019-01-31T11:45:37.119Z,8.63
2019-01-31T11:48:44.109Z,9.13
2019-01-31T11:52:10.058Z,9.50
2019-01-31T11:55:10.966Z,8.67
2019-01-31T11:58:20.334Z,9.60
2019-01-31T12:00:53.078Z,9.45
2019-01-31T12:03:23.469Z,8.58
2019-01-31T12:05:53.224Z,9.25
2019-01-31T12:08:22.913Z,9.47
2019-01-31T12:10:52.592Z,10.08
2019-01-31T12:13:23.750Z,8.43
2019-01-31T12:15:53.638Z,9.23
2019-01-31T12:18:23.583Z,9.63
2019-01-31T12:20:53.343Z,9.30
2019-01-31T12:23:23.264Z,8.40
2019-01-31T12:25:52.941Z,8.63
2019-01-31T12:28:22.951Z,9.03
2019-01-31T12:30:52.885Z,8.38
2019-01-31T12:33:22.554Z,7.83
2019-01-31T12:35:52.560Z,8.13
2019-01-31T12:38:23.270Z,7.97
2019-01-31T12:40:53.037Z,8.17
2019-01-31T12:43:34.423Z,7.20
2019-01-31T12:45:55.058Z,7.78
2019-01-31T12:48:24.896Z,7.40
2019-01-31T12:50:54.837Z,7.30
2019-01-31T12:53:24.654Z,7.63
2019-01-31T12:55:55.394Z,6.53
2019-01-31T12:58:33.280Z,7.27
2019-01-31T13:00:56.504Z,7.60
2019-01-31T13:03:26.178Z,7.53
2019-01-31T13:05:55.854Z,7.80
2019-01-31T13:08:25.526Z,7.93
2019-01-31T13:10:55.705Z,8.83
2019-01-31T13:13:25.371Z,8.80
2019-01-31T13:15:55.262Z,8.87
2019-01-31T13:18:25.330Z,8.20
2019-01-31T13:20:55.079Z,8.43
2019-01-31T13:23:25.285Z,8.83
2019-01-31T13:25:55.257Z,8.63
2019-01-31T13:28:24.994Z,8.70
2019-01-31T13:30:54.668Z,9.30
2019-01-31T13:33:24.489Z,10.30
2019-01-31T13:35:54.180Z,9.17
2019-01-31T13:38:24.186Z,9.85
2019-01-31T13:40:53.947Z,9.87
2019-01-31T13:43:23.686Z,9.93
2019-01-31T13:45:53.722Z,9.53
2019-01-31T13:48:23.484Z,9.20
2019-01-31T13:50:53.333Z,10.27
2019-01-31T13:53:23.097Z,10.72
2019-01-31T13:55:52.859Z,10.10
2019-01-31T13:58:22.770Z,10.20
2019-01-31T14:00:52.476Z,9.23
2019-01-31T14:03:22.693Z,9.83
2019-01-31T14:05:52.607Z,9.80
2019-01-31T14:08:22.277Z,9.90
2019-01-31T14:10:52.264Z,10.33
2019-01-31T14:13:21.944Z,9.47
2019-01-31T14:15:53.795Z,9.70
2019-01-31T14:18:24.360Z,9.00
2019-01-31T14:20:54.353Z,9.43
2019-01-31T14:23:24.291Z,8.43
2019-01-31T14:25:53.964Z,9.20
2019-01-31T14:28:24.010Z,9.58
2019-01-31T14:30:53.882Z,9.18
2019-01-31T14:33:25.110Z,9.75
2019-01-31T14:35:59.215Z,10.17
2019-01-31T14:38:29.099Z,10.03
2019-01-31T14:40:59.042Z,10.00
2019-01-31T14:43:29.020Z,10.10
2019-01-31T14:45:58.821Z,10.57
2019-01-31T14:48:29.318Z,9.65
2019-01-31T14:50:59.171Z,9.70
2019-01-31T14:53:29.119Z,10.23
2019-01-31T14:55:58.808Z,10.53
2019-01-31T14:58:28.551Z,10.20
2019-01-31T15:00:58.504Z,10.60
2019-01-31T15:03:28.186Z,9.73
2019-01-31T15:05:58.310Z,10.73
2019-01-31T15:08:27.987Z,18.10
2019-01-31T15:10:57.773Z,20.00
2019-01-31T15:13:27.452Z,21.37
2019-01-31T15:15:58.107Z,19.97
2019-01-31T15:18:27.977Z,18.70
2019-01-31T15:20:57.650Z,17.90
2019-01-31T15:23:27.759Z,16.40
2019-01-31T15:25:57.748Z,17.60
2019-01-31T15:28:27.428Z,16.60
2019-01-31T15:30:57.171Z,16.80
2019-01-31T15:33:26.945Z,16.47
2019-01-31T15:35:56.912Z,15.88
2019-01-31T15:38:26.927Z,16.30
2019-01-31T15:40:56.667Z,15.75
2019-01-31T15:43:26.356Z,16.23
2019-01-31T15:45:56.466Z,16.00
2019-01-31T15:48:26.154Z,14.73
2019-01-31T15:50:55.903Z,14.55
2019-01-31T15:53:25.576Z,14.58
2019-01-31T15:55:56.131Z,14.00
2019-01-31T15:58:25.954Z,14.57
2019-01-31T16:00:57.296Z,14.17
2019-01-31T16:03:27.715Z,13.15
2019-01-31T16:05:57.651Z,15.18
2019-01-31T16:08:27.607Z,14.27
2019-01-31T16:10:57.522Z,14.30
2019-01-31T16:13:27.213Z,15.45
2019-01-31T16:15:58.098Z,15.25
2019-01-31T16:18:29.107Z,16.12
2019-01-31T16:20:58.807Z,15.70
2019-01-31T16:23:28.656Z,16.30
2019-01-31T16:25:58.646Z,15.70
2019-01-31T16:28:28.791Z,14.53
2019-01-31T16:30:58.536Z,15.00
2019-01-31T16:33:28.366Z,13.60
2019-01-31T16:35:58.420Z,14.23
2019-01-31T16:38:28.191Z,13.93
2019-01-31T16:40:57.945Z,13.57
2019-01-31T16:43:27.931Z,13.60
2019-01-31T16:45:57.751Z,13.32
2019-01-31T16:48:27.833Z,14.07
2019-01-31T16:50:57.824Z,13.50
2019-01-31T16:53:28.516Z,13.62
2019-01-31T16:55:58.746Z,13.57
2019-01-31T16:58:29.146Z,13.60
2019-01-31T17:00:59.242Z,14.27
2019-01-31T17:03:28.965Z,13.63
2019-01-31T17:05:58.644Z,15.00
2019-01-31T17:08:29.473Z,14.95
2019-01-31T17:10:59.538Z,15.73
2019-01-31T17:13:29.240Z,14.30
2019-01-31T17:15:59.568Z,15.95
2019-01-31T17:18:29.317Z,14.50
2019-01-31T17:20:59.211Z,15.97
2019-01-31T17:23:28.949Z,13.97
2019-01-31T17:25:58.883Z,14.67
2019-01-31T17:28:28.648Z,14.53
2019-01-31T17:30:58.340Z,14.07
2019-01-31T17:33:29.006Z,15.03
2019-01-31T17:35:58.982Z,14.37
2019-01-31T17:38:28.914Z,13.67
2019-01-31T17:40:58.685Z,14.57
2019-01-31T17:43:28.337Z,14.23
2019-01-31T17:45:58.288Z,13.93
2019-01-31T17:48:28.001Z,13.43
2019-01-31T17:50:57.697Z,13.80
2019-01-31T17:53:27.393Z,13.40
2019-01-31T17:55:57.357Z,14.27
2019-01-31T17:58:27.386Z,13.90
2019-01-31T18:00:58.811Z,14.57
2019-01-31T18:03:28.787Z,12.90
2019-01-31T18:05:59.089Z,13.72
2019-01-31T18:08:28.989Z,13.27
2019-01-31T18:10:58.675Z,13.85
2019-01-31T18:13:28.434Z,13.53
2019-01-31T18:15:58.606Z,13.27
2019-01-31T18:18:28.326Z,13.10
2019-01-31T18:20:58.462Z,13.10
2019-01-31T18:23:28.564Z,13.63
2019-01-31T18:25:58.716Z,12.80
2019-01-31T18:28:28.507Z,13.27
2019-01-31T18:30:58.308Z,13.28
2019-01-31T18:33:28.184Z,13.35
2019-01-31T18:35:57.880Z,12.47
2019-01-31T18:38:27.577Z,13.07
2019-01-31T18:40:57.274Z,11.53
2019-01-31T18:43:27.225Z,13.07
2019-01-31T18:45:56.914Z,12.63
2019-01-31T18:48:26.594Z,14.20
2019-01-31T18:50:56.282Z,13.23
2019-01-31T18:53:26.180Z,13.85
2019-01-31T18:55:56.330Z,13.07
2019-01-31T18:58:26.522Z,13.47
2019-01-31T19:00:56.392Z,13.23
2019-01-31T19:03:26.137Z,13.37
2019-01-31T19:05:56.011Z,12.77
2019-01-31T19:08:25.844Z,13.47
2019-01-31T19:10:55.633Z,13.97
2019-01-31T19:13:25.595Z,15.38
2019-01-31T19:16:04.872Z,15.83
2019-01-31T19:18:26.750Z,16.00
2019-01-31T19:20:56.697Z,16.60
2019-01-31T19:23:26.350Z,16.23
2019-01-31T19:25:56.100Z,17.47
2019-01-31T19:28:25.838Z,18.20
2019-01-31T19:30:55.624Z,17.13
2019-01-31T19:33:25.392Z,18.15
2019-01-31T19:35:55.433Z,17.87
2019-01-31T19:38:25.576Z,18.20
2019-01-31T19:40:55.354Z,17.53
2019-01-31T19:43:25.099Z,17.62
2019-01-31T19:45:55.143Z,19.63
2019-01-31T19:48:25.203Z,20.23
2019-01-31T19:50:55.429Z,18.75
2019-01-31T19:53:27.086Z,19.77
2019-01-31T19:55:57.296Z,18.10
2019-01-31T19:58:26.967Z,19.47
2019-01-31T20:00:57.124Z,18.12
2019-01-31T20:03:26.827Z,19.25
2019-01-31T20:05:56.589Z,20.00
2019-01-31T20:08:26.256Z,19.60
2019-01-31T20:10:56.096Z,19.20
2019-01-31T20:13:26.022Z,19.73
2019-01-31T20:15:56.036Z,20.17
2019-01-31T20:18:25.882Z,20.43
2019-01-31T20:20:55.654Z,19.63
2019-01-31T20:23:25.827Z,19.40
2019-01-31T20:25:55.657Z,20.00
2019-01-31T20:28:25.552Z,18.87
2019-01-31T20:30:55.239Z,19.90
2019-01-31T20:33:25.331Z,19.73
2019-01-31T20:35:55.218Z,19.03
2019-01-31T20:38:25.250Z,18.12
2019-01-31T20:40:55.429Z,18.63
2019-01-31T20:43:25.245Z,19.00
2019-01-31T20:45:55.247Z,18.17
2019-01-31T20:48:25.375Z,18.33
2019-01-31T20:50:55.247Z,19.67
2019-01-31T20:53:24.918Z,17.87
2019-01-31T20:55:54.858Z,19.30
2019-01-31T20:58:24.612Z,19.02
2019-01-31T21:00:54.622Z,18.10
2019-01-31T21:03:24.946Z,18.23
2019-01-31T21:05:54.805Z,17.57
2019-01-31T21:08:24.922Z,17.90
2019-01-31T21:10:54.642Z,18.02
2019-01-31T21:13:24.311Z,17.15
2019-01-31T21:15:54.440Z,18.23
2019-01-31T21:18:24.105Z,19.40
2019-01-31T21:20:54.031Z,18.00
2019-01-31T21:23:24.300Z,17.90
2019-01-31T21:25:54.120Z,17.73
2019-01-31T21:28:24.089Z,18.77
2019-01-31T21:30:53.785Z,18.42
2019-01-31T21:33:23.475Z,17.87
2019-01-31T21:35:53.226Z,17.60
2019-01-31T21:38:23.160Z,16.97
2019-01-31T21:40:52.954Z,18.23
2019-01-31T21:43:22.881Z,17.17
2019-01-31T21:45:52.760Z,18.50
2019-01-31T21:48:23.111Z,17.73
2019-01-31T21:50:53.059Z,18.87
2019-01-31T21:53:22.754Z,18.07
2019-01-31T21:55:52.528Z,16.90
2019-01-31T21:58:22.595Z,17.73
2019-01-31T22:00:52.379Z,18.15
2019-01-31T22:03:22.048Z,17.80
2019-01-31T22:05:51.821Z,17.80
2019-01-31T22:08:21.568Z,17.70
2019-01-31T22:10:51.304Z,17.73
2019-01-31T22:13:20.978Z,16.87
2019-01-31T22:15:50.941Z,16.50
2019-01-31T22:18:21.637Z,17.10
2019-01-31T22:20:51.275Z,18.30
2019-01-31T22:23:20.948Z,18.33
2019-01-31T22:25:50.981Z,18.50
2019-01-31T22:28:20.657Z,18.23
2019-01-31T22:30:50.419Z,16.95
2019-01-31T22:33:20.103Z,16.60
2019-01-31T22:35:50.106Z,18.37
2019-01-31T22:38:20.037Z,17.50
2019-01-31T22:40:49.715Z,16.93
2019-01-31T22:43:20.518Z,16.97
2019-01-31T22:45:50.289Z,16.40
2019-01-31T22:48:20.028Z,16.33
2019-01-31T22:50:49.724Z,17.52
2019-01-31T22:53:19.400Z,17.50
2019-01-31T22:55:49.076Z,16.60
2019-01-31T22:58:18.759Z,18.20
2019-01-31T23:01:15.683Z,17.10
2019-01-31T23:03:45.934Z,17.10
2019-01-31T23:06:16.843Z,16.75
2019-01-31T23:08:46.683Z,16.63
2019-01-31T23:11:16.445Z,16.95
2019-01-31T23:13:46.460Z,16.80
2019-01-31T23:16:16.402Z,17.30
2019-01-31T23:18:46.084Z,17.40
2019-01-31T23:21:16.554Z,17.20
2019-01-31T23:23:46.227Z,17.73
2019-01-31T23:26:15.913Z,17.40
2019-01-31T23:28:45.580Z,16.82
2019-01-31T23:31:16.575Z,16.53
2019-01-31T23:33:46.263Z,16.43
2019-01-31T23:36:15.932Z,16.90
2019-01-31T23:38:45.896Z,15.43
2019-01-31T23:41:15.831Z,15.70
2019-01-31T23:43:45.848Z,16.00
2019-01-31T23:46:16.005Z,15.67
2019-01-31T23:48:45.698Z,15.18
2019-01-31T23:51:15.875Z,16.45
2019-01-31T23:53:45.560Z,15.90
2019-01-31T23:56:15.596Z,15.07
2019-01-31T23:58:45.289Z,14.95
